Terminal Aerodrome Forecast
Issued by NWS

Home | Current Version | Previous Version | Text Only | Print | Product List | Glossary On
Versions: 1 2 3 4 5 6 7 8 9 10 11 12 13 14 15 16
000
FTUS44 KEWX 200500
TAFSSF
TAF
KSSF 200530Z 2006/2106 12007KT P6SM SCT035 BKN060
     FM201100 05003KT P6SM BKN015
     FM201700 10007KT P6SM BKN040 BKN200=

USA.gov is the U.S. government's official web portal to all federal, state and local government web resources and services.